Cumming, IA (50061)

3:05 PM CDT on April 18, 2015 (GMT -0500)
Norwalk, IA (2mi SW) | | Change Station
CLOSE
Current Station
Personal Weather Station
Location: Norwalk, IA
Elevation: 919 ft
Nearby Weather Stations

Elev 919 ft 41.46 °N, 93.71 °W | Updated 25 seconds ago

Overcast
Overcast
62.2 °F
Feels Like 62.2 °F
N
7.2
Wind Variable Wind from SSW
Gusts 9.8 mph

Today
High -- | Low -- °F
--% Chance of Precip.
Yesterday
High -- | Low -- °F
Precip. -- in
6:30 AM 7:58 PM
New Moon, 0% visible
Pressure 29.90 in
Visibility 10.0 miles
Clouds Scattered Clouds 6000 ft
Mostly Cloudy 8000 ft
Overcast 11000 ft
Dew Point 57 °F
Humidity 83%
Rainfall 0.13 in
Snow Depth Not available.
UV 2 out of 12
Pollen 2.80 out of 12
Air Quality Not available.
Flu Activity Local Activity
METAR KDSM 181954Z 19015G25KT 10SM -RA SCT060 BKN080 OVC110 19/13 A2990 RMK AO2 PK WND 14032/1855 RAB37 TSB29E46 SLP123 TS MOV N CB DSNT NE AND DSNT SW-W MOV N P0000 T01890133

More Conditions Fewer Conditions

Pressure 29.90 in
Visibility 10.0 miles
Clouds Scattered Clouds 6000 ft
Mostly Cloudy 8000 ft
Overcast 11000 ft
Dew Point 57 °F
Humidity 83%
Rainfall 0.13 in
Snow Depth Not available.
UV 2 out of 12
Pollen 2.80 out of 12
Air Quality Not available.
Flu Activity Local Activity
METAR KDSM 181954Z 19015G25KT 10SM -RA SCT060 BKN080 OVC110 19/13 A2990 RMK AO2 PK WND 14032/1855 RAB37 TSB29E46 SLP123 TS MOV N CB DSNT NE AND DSNT SW-W MOV N P0000 T01890133

More Conditions Fewer Conditions

10-Day Weather Forecast

Almanac

Astronomy

Apr. 18, 2015 Rise Set
Actual Time
Civil Twilight
Nautical Twilight
Astronomical Twilight
Moon
Length of Visible Light
Length of Day
Tomorrow will be .
, % of the Moon is Illuminated

Today's Extremes

State Highs State Lows

Community

WunderPhotos

Upload Photos

1,814,513 photos uploaded!

WunderBlogs® & News

Nearby

Air Quality

  Air Quality AQ Index Pollutant
Not available.

Snow Depth

Station Depth Elevation

Earthquake Activity

City Distance Mag. Time & Date
Minimum magnitude displayed is 2.5.

Coastal Water Temperatures

Place Temperature

Stations

Nearby Weather Stations

Station Location Temp. Windchill Dew Point Humidity Wind Precip. Elev Updated Type